createdAt,value
2017-10-05T00:00:52.292Z,1.80
2017-10-05T00:03:18.752Z,1.27
2017-10-05T00:05:45.202Z,1.35
2017-10-05T00:08:11.730Z,0.88
2017-10-05T00:10:38.224Z,1.20
2017-10-05T00:13:05.400Z,3.75
2017-10-05T00:15:31.867Z,1.52
2017-10-05T00:17:58.311Z,1.00
2017-10-05T00:20:24.800Z,0.77
2017-10-05T00:22:51.289Z,2.20
2017-10-05T00:25:17.796Z,1.15
2017-10-05T00:27:44.214Z,2.58
2017-10-05T00:30:10.672Z,0.93
2017-10-05T00:32:37.168Z,882.75
2017-10-05T00:35:03.705Z,8.85
2017-10-05T00:37:30.161Z,658.95
2017-10-05T00:39:56.616Z,1.10
2017-10-05T00:42:23.076Z,794.03
2017-10-05T00:44:50.276Z,1.90
2017-10-05T00:47:16.705Z,1.05
2017-10-05T00:49:43.249Z,0.95
2017-10-05T00:52:09.735Z,1.40
2017-10-05T00:54:36.282Z,0.70
2017-10-05T00:57:02.810Z,1.30
2017-10-05T00:59:29.276Z,1.10
2017-10-05T01:01:55.785Z,0.70
2017-10-05T01:04:22.207Z,1.35
2017-10-05T01:06:49.426Z,950.60
2017-10-05T01:09:15.906Z,953.33
2017-10-05T01:11:42.364Z,1.42
2017-10-05T01:14:08.924Z,0.90
2017-10-05T01:16:35.413Z,0.70
2017-10-05T01:19:01.897Z,1.15
2017-10-05T01:21:29.224Z,1.00
2017-10-05T01:23:55.713Z,766.80
2017-10-05T01:26:22.928Z,999.53
2017-10-05T01:28:50.164Z,769.95
2017-10-05T01:31:16.608Z,182.60
2017-10-05T01:33:43.160Z,681.28
2017-10-05T01:36:10.385Z,836.42
2017-10-05T01:38:36.927Z,845.92
2017-10-05T01:41:03.426Z,864.12
2017-10-05T01:43:29.885Z,836.47
2017-10-05T01:45:56.406Z,698.85
2017-10-05T01:48:23.685Z,672.03
2017-10-05T01:50:50.186Z,672.92
2017-10-05T01:53:16.620Z,664.10
2017-10-05T01:55:43.193Z,659.53
2017-10-05T01:58:09.618Z,651.08
2017-10-05T02:00:36.098Z,648.83
2017-10-05T02:03:02.556Z,643.00
2017-10-05T02:05:29.198Z,644.85
2017-10-05T02:07:55.651Z,638.45
2017-10-05T02:10:22.132Z,647.87
2017-10-05T02:12:49.334Z,633.12
2017-10-05T02:15:15.791Z,640.45
2017-10-05T02:17:43.057Z,647.03
2017-10-05T02:20:09.472Z,644.67
2017-10-05T02:22:36.680Z,649.38
2017-10-05T02:25:03.108Z,673.08
2017-10-05T02:27:29.557Z,653.70
2017-10-05T02:29:56.004Z,652.22
2017-10-05T02:32:22.800Z,652.72
2017-10-05T02:34:50.438Z,640.88
2017-10-05T02:37:17.249Z,694.70
2017-10-05T02:39:44.065Z,655.97
2017-10-05T02:42:10.925Z,734.67
2017-10-05T02:44:37.750Z,802.17
2017-10-05T02:47:04.246Z,84.20
2017-10-05T02:49:31.464Z,1.40
2017-10-05T02:51:57.917Z,2.05
2017-10-05T02:54:24.335Z,1.75
2017-10-05T02:56:50.789Z,1.40
2017-10-05T02:59:17.988Z,1.60
2017-10-05T03:01:44.425Z,2.17
2017-10-05T03:04:10.930Z,1035.32
2017-10-05T03:06:38.132Z,1020.53
2017-10-05T03:09:05.334Z,2.42
2017-10-05T03:11:31.781Z,3.28
2017-10-05T03:13:58.258Z,2.05
2017-10-05T03:16:24.741Z,1.30
2017-10-05T03:18:51.217Z,7.62
2017-10-05T03:21:17.661Z,2.55
2017-10-05T03:23:44.860Z,5.78
2017-10-05T03:26:11.321Z,1016.33
2017-10-05T03:28:37.757Z,1010.47
2017-10-05T03:31:04.201Z,1062.03
2017-10-05T03:33:30.766Z,848.30
2017-10-05T03:35:57.216Z,881.80
2017-10-05T03:38:23.644Z,984.22
2017-10-05T03:40:50.177Z,685.35
2017-10-05T03:43:16.723Z,633.58
2017-10-05T03:45:43.194Z,917.10
2017-10-05T03:48:10.418Z,718.67
2017-10-05T03:50:36.919Z,624.58
2017-10-05T03:53:04.140Z,667.58
2017-10-05T03:55:31.374Z,628.15
2017-10-05T03:57:58.578Z,293.42
2017-10-05T04:00:25.797Z,219.77
2017-10-05T04:02:53.073Z,295.77
2017-10-05T04:05:20.276Z,247.10
2017-10-05T04:07:47.485Z,160.05
2017-10-05T04:10:14.703Z,170.10
2017-10-05T04:12:42.654Z,236.00
2017-10-05T04:15:09.861Z,185.37
2017-10-05T04:17:37.117Z,586.03
2017-10-05T04:20:04.306Z,475.38
2017-10-05T04:22:31.476Z,362.52
2017-10-05T04:24:58.707Z,100.68
2017-10-05T04:27:25.910Z,59.33
2017-10-05T04:29:53.089Z,47.83
2017-10-05T04:32:20.366Z,44.00
2017-10-05T04:34:47.562Z,33.65
2017-10-05T04:37:14.913Z,51.65
2017-10-05T04:39:42.109Z,51.83
2017-10-05T04:42:09.274Z,9.00
2017-10-05T04:44:36.501Z,2.95
2017-10-05T04:47:03.798Z,4.32
2017-10-05T04:49:30.945Z,6.82
2017-10-05T04:51:58.909Z,5.07
2017-10-05T04:54:26.932Z,3.08
2017-10-05T04:56:54.174Z,3.42
2017-10-05T04:59:21.409Z,3.17
2017-10-05T05:01:48.648Z,5.47
2017-10-05T05:04:16.549Z,2.78
2017-10-05T05:06:43.741Z,2.72
2017-10-05T05:09:10.957Z,2.86
2017-10-05T05:11:38.123Z,19.20
2017-10-05T05:16:34.284Z,516.90
2017-10-05T05:19:02.267Z,50.95
2017-10-05T05:21:29.442Z,48.55
2017-10-05T05:23:56.708Z,34.58
2017-10-05T05:26:23.927Z,28.52
2017-10-05T05:28:51.116Z,26.12
2017-10-05T05:31:18.313Z,3.12
2017-10-05T05:33:45.541Z,1.85
2017-10-05T05:36:12.746Z,2.55
2017-10-05T05:38:39.934Z,2.35
2017-10-05T05:41:07.174Z,3.53
2017-10-05T05:43:34.408Z,2.17
2017-10-05T05:46:01.670Z,1.85
2017-10-05T05:48:28.901Z,2.20
2017-10-05T05:50:56.113Z,2.10
2017-10-05T05:53:23.329Z,1.90
2017-10-05T05:55:50.538Z,4.75
2017-10-05T05:58:18.577Z,6.70
2017-10-05T06:03:16.154Z,35.13
2017-10-05T06:05:43.370Z,2.95
2017-10-05T06:08:10.622Z,3.62
2017-10-05T06:10:37.860Z,3.26
2017-10-05T06:13:05.082Z,3.08
2017-10-05T06:15:33.028Z,3.03
2017-10-05T06:18:00.263Z,3.70
2017-10-05T06:22:55.798Z,40.13
2017-10-05T06:27:53.591Z,24.48
2017-10-05T06:32:48.980Z,12.65
2017-10-05T06:37:44.310Z,21.12
2017-10-05T06:42:39.765Z,47.33
2017-10-05T06:45:06.968Z,2.36
2017-10-05T06:50:02.457Z,163.55
2017-10-05T06:52:30.373Z,24.35
2017-10-05T06:54:57.553Z,20.35
2017-10-05T06:57:24.745Z,18.95
2017-10-05T06:59:51.962Z,6.43
2017-10-05T07:07:19.021Z,244.87
2017-10-05T07:09:46.199Z,2.05
2017-10-05T07:14:41.507Z,50.50
2017-10-05T07:17:09.570Z,3.78
2017-10-05T07:19:36.776Z,1.67
2017-10-05T07:22:04.746Z,5.07
2017-10-05T07:27:00.171Z,48.20
2017-10-05T07:31:56.498Z,21.27
2017-10-05T07:39:21.178Z,38.63
2017-10-05T07:46:44.523Z,231.32
2017-10-05T07:51:41.961Z,29.15
2017-10-05T08:16:23.327Z,19.07
2017-10-05T08:33:39.490Z,2.40
2017-10-05T08:36:05.958Z,3.90
2017-10-05T08:38:33.176Z,1.55
2017-10-05T08:40:59.605Z,1.65
2017-10-05T08:43:26.051Z,1.80
2017-10-05T08:45:52.516Z,7.28
2017-10-05T08:48:19.145Z,7.47
2017-10-05T08:50:46.337Z,2.25
2017-10-05T08:53:12.801Z,7.10
2017-10-05T08:55:39.251Z,4.80
2017-10-05T08:58:05.734Z,7.05
2017-10-05T09:00:32.253Z,3.62
2017-10-05T09:02:58.742Z,2.00
2017-10-05T09:05:25.197Z,1.55
2017-10-05T09:07:51.671Z,121.40
2017-10-05T09:10:18.113Z,6.65
2017-10-05T09:12:44.593Z,694.97
2017-10-05T09:15:11.058Z,879.58
2017-10-05T09:17:37.480Z,2.15
2017-10-05T09:20:03.989Z,2.87
2017-10-05T09:22:30.484Z,2.08
2017-10-05T09:24:56.932Z,3.30
2017-10-05T09:27:24.105Z,1.55
2017-10-05T09:29:50.583Z,1.40
2017-10-05T09:32:17.013Z,77.05
2017-10-05T09:34:43.490Z,4.57
2017-10-05T09:37:09.967Z,2.47
2017-10-05T09:39:37.165Z,1.80
2017-10-05T09:42:03.657Z,2.05
2017-10-05T09:44:30.290Z,1.10
2017-10-05T09:46:56.807Z,0.93
2017-10-05T09:49:23.990Z,1.20
2017-10-05T09:51:50.453Z,1.12
2017-10-05T09:54:16.901Z,3.45
2017-10-05T09:56:43.408Z,1.12
2017-10-05T09:59:09.950Z,1.48
2017-10-05T10:01:36.408Z,2.40
2017-10-05T10:04:02.838Z,633.28
2017-10-05T10:06:29.281Z,866.92
2017-10-05T10:08:55.722Z,0.85
2017-10-05T10:11:22.185Z,1.80
2017-10-05T10:13:48.624Z,0.85
2017-10-05T10:16:15.105Z,1.80
2017-10-05T10:18:42.362Z,0.95
2017-10-05T10:21:09.576Z,1.83
2017-10-05T10:23:36.054Z,2.65
2017-10-05T10:26:02.554Z,126.18
2017-10-05T10:28:29.010Z,1.02
2017-10-05T10:30:55.593Z,1.70
2017-10-05T10:33:22.077Z,0.88
2017-10-05T10:35:48.520Z,1.73
2017-10-05T10:38:14.981Z,1.90
2017-10-05T10:40:41.429Z,3.00
2017-10-05T10:43:07.957Z,1.62
2017-10-05T10:45:34.393Z,0.80
2017-10-05T10:48:00.821Z,1.55
2017-10-05T10:50:27.289Z,1.15
2017-10-05T10:52:53.713Z,3.45
2017-10-05T10:55:20.189Z,1.25
2017-10-05T10:57:46.640Z,0.85
2017-10-05T11:00:13.841Z,0.75
2017-10-05T11:02:40.319Z,1.10
2017-10-05T11:05:07.566Z,1.10
2017-10-05T11:07:34.005Z,2.15
2017-10-05T11:10:00.526Z,0.93
2017-10-05T11:12:27.084Z,1.10
2017-10-05T11:14:54.281Z,1.05
2017-10-05T11:17:20.701Z,1.25
2017-10-05T11:19:47.174Z,1.12
2017-10-05T11:22:13.699Z,1.37
2017-10-05T11:24:40.141Z,2.35
2017-10-05T11:27:06.656Z,1.17
2017-10-05T11:29:33.083Z,0.70
2017-10-05T11:31:59.482Z,2.12
2017-10-05T11:34:25.953Z,2.60
2017-10-05T11:36:52.479Z,1.48
2017-10-05T11:39:18.889Z,1.75
2017-10-05T11:41:45.366Z,1.55
2017-10-05T11:44:12.574Z,1.25
2017-10-05T11:46:39.049Z,1.77
2017-10-05T11:49:05.517Z,5.20
2017-10-05T11:51:31.984Z,2.20
2017-10-05T11:53:58.409Z,1.08
2017-10-05T11:56:24.967Z,2.60
2017-10-05T11:58:51.401Z,1.35
2017-10-05T12:01:17.921Z,0.80
2017-10-05T12:03:44.321Z,1.05
2017-10-05T12:06:10.743Z,1.45
2017-10-05T12:08:37.956Z,4.95
2017-10-05T12:11:04.410Z,1.40
2017-10-05T12:13:31.614Z,0.70
2017-10-05T12:15:58.060Z,0.93
2017-10-05T12:18:24.481Z,3.30
2017-10-05T12:20:50.905Z,1.60
2017-10-05T12:23:17.355Z,1.33
2017-10-05T12:25:43.813Z,1.75
2017-10-05T12:28:11.109Z,0.88
2017-10-05T12:30:37.557Z,6.97
2017-10-05T12:33:04.005Z,1.00
2017-10-05T12:35:30.446Z,1.23
2017-10-05T12:37:57.618Z,1.67
2017-10-05T12:40:24.090Z,1.35
2017-10-05T12:42:50.526Z,1.27
2017-10-05T12:45:17.785Z,1.10
2017-10-05T12:47:44.214Z,1.10
2017-10-05T12:50:10.708Z,2.05
2017-10-05T12:52:37.157Z,2.08
2017-10-05T12:55:03.626Z,1.00
2017-10-05T12:57:30.085Z,2.45
2017-10-05T12:59:56.517Z,1.23
2017-10-05T13:02:22.993Z,1.70
2017-10-05T13:04:49.504Z,1.00
2017-10-05T13:07:15.921Z,1.48
2017-10-05T13:09:42.372Z,1.40
2017-10-05T13:12:08.882Z,1.77
2017-10-05T13:14:35.367Z,2.03
2017-10-05T13:17:01.894Z,1.10
2017-10-05T13:19:29.053Z,2.87
2017-10-05T13:21:55.506Z,0.75
2017-10-05T13:24:22.018Z,1.55
2017-10-05T13:26:49.176Z,2.30
2017-10-05T13:29:16.386Z,1.02
2017-10-05T13:31:42.866Z,1.98
2017-10-05T13:34:09.342Z,1.37
2017-10-05T13:36:35.872Z,2.55
2017-10-05T13:39:02.378Z,1.77
2017-10-05T13:41:28.893Z,2.75
2017-10-05T13:43:56.057Z,1.02
2017-10-05T13:46:22.534Z,3.15
2017-10-05T13:48:49.022Z,1.70
2017-10-05T13:51:15.480Z,0.95
2017-10-05T13:53:42.748Z,0.90
2017-10-05T13:56:09.237Z,1.15
2017-10-05T13:58:35.710Z,1.33
2017-10-05T14:01:02.182Z,3.05
2017-10-05T14:03:28.660Z,1.10
2017-10-05T14:05:55.162Z,1.10
2017-10-05T14:08:21.738Z,1.95
2017-10-05T14:10:48.180Z,1.30
2017-10-05T14:13:14.602Z,3.72
2017-10-05T14:15:41.066Z,1.50
2017-10-05T14:18:07.490Z,1.40
2017-10-05T14:20:33.936Z,3.78
2017-10-05T14:23:00.397Z,1.37
2017-10-05T14:25:26.870Z,1.77
2017-10-05T14:27:53.357Z,1.23
2017-10-05T14:30:20.574Z,1.42
2017-10-05T14:32:47.025Z,4.03
2017-10-05T14:35:13.442Z,1.40
2017-10-05T14:37:39.905Z,3.30
2017-10-05T14:40:06.386Z,2.45
2017-10-05T14:42:33.645Z,1.52
2017-10-05T14:45:00.113Z,1.85
2017-10-05T14:47:26.563Z,2.12
2017-10-05T14:49:53.789Z,2.15
2017-10-05T14:52:20.262Z,1.90
2017-10-05T14:54:47.444Z,1.80
2017-10-05T14:57:13.913Z,3.33
2017-10-05T14:59:41.113Z,1.10
2017-10-05T15:02:07.581Z,4.72
2017-10-05T15:04:34.035Z,1.90
2017-10-05T15:07:00.460Z,2.90
2017-10-05T15:09:26.925Z,4.87
2017-10-05T15:11:53.408Z,2.42
2017-10-05T15:14:19.828Z,3.75
2017-10-05T15:16:46.365Z,1.50
2017-10-05T15:19:12.816Z,1.90
2017-10-05T15:21:39.270Z,2.00
2017-10-05T15:24:05.728Z,2.72
2017-10-05T15:26:33.003Z,4.18
2017-10-05T15:28:59.462Z,2.97
2017-10-05T15:31:25.917Z,2.30
2017-10-05T15:33:53.167Z,2.40
2017-10-05T15:36:20.380Z,4.85
2017-10-05T15:38:46.909Z,4.15
2017-10-05T15:41:13.425Z,2.35
2017-10-05T15:43:39.884Z,2.05
2017-10-05T15:46:06.357Z,2.28
2017-10-05T15:48:33.619Z,2.70
2017-10-05T15:51:00.098Z,2.90
2017-10-05T15:53:27.361Z,2.50
2017-10-05T15:55:53.842Z,2.40
2017-10-05T15:58:21.109Z,2.35
2017-10-05T16:00:48.292Z,2.20
2017-10-05T16:03:14.778Z,3.75
2017-10-05T16:05:41.222Z,4.97
2017-10-05T16:08:07.697Z,2.15
2017-10-05T16:10:34.204Z,2.62
2017-10-05T16:13:00.722Z,2.65
2017-10-05T16:15:27.925Z,2.80
2017-10-05T16:17:54.412Z,2.37
2017-10-05T16:20:21.607Z,4.00
2017-10-05T16:22:48.085Z,3.87
2017-10-05T16:25:15.294Z,3.33
2017-10-05T16:27:41.865Z,2.10
2017-10-05T16:30:09.121Z,3.65
2017-10-05T16:32:35.655Z,2.75
2017-10-05T16:35:02.270Z,3.15
2017-10-05T16:37:28.709Z,34.50
2017-10-05T16:39:55.167Z,4.20
2017-10-05T16:42:21.719Z,3.72
2017-10-05T16:44:48.481Z,2.78
2017-10-05T16:47:15.189Z,3.08
2017-10-05T16:49:42.049Z,5.90
2017-10-05T16:52:08.713Z,3.15
2017-10-05T16:54:35.479Z,2.60
2017-10-05T16:57:02.575Z,3.15
2017-10-05T16:59:29.029Z,3.15
2017-10-05T17:01:55.519Z,2.58
2017-10-05T17:04:22.002Z,2.62
2017-10-05T17:06:48.472Z,2.92
2017-10-05T17:09:15.677Z,4.95
2017-10-05T17:11:42.228Z,4.70
2017-10-05T17:14:08.683Z,6.15
2017-10-05T17:16:36.037Z,2.65
2017-10-05T17:19:03.251Z,4.65
2017-10-05T17:21:29.682Z,4.10
2017-10-05T17:23:56.192Z,4.75
2017-10-05T17:26:22.711Z,4.20
2017-10-05T17:28:50.075Z,4.68
2017-10-05T17:31:16.656Z,3.75
2017-10-05T17:33:43.219Z,4.45
2017-10-05T17:36:09.698Z,4.07
2017-10-05T17:38:36.175Z,3.00
2017-10-05T17:41:02.755Z,7.03
2017-10-05T17:43:29.294Z,6.18
2017-10-05T17:45:55.999Z,7.45
2017-10-05T17:48:22.641Z,6.40
2017-10-05T17:50:49.904Z,4.40
2017-10-05T17:53:16.522Z,4.37
2017-10-05T17:55:43.809Z,3.75
2017-10-05T17:58:10.239Z,3.80
2017-10-05T18:00:36.733Z,4.20
2017-10-05T18:03:04.025Z,3.25
2017-10-05T18:05:30.498Z,3.67
2017-10-05T18:07:56.933Z,2.90
2017-10-05T18:10:23.390Z,5.32
2017-10-05T18:12:49.879Z,4.95
2017-10-05T18:15:16.332Z,3.60
2017-10-05T18:17:42.765Z,5.75
2017-10-05T18:20:09.215Z,4.45
2017-10-05T18:22:35.657Z,4.57
2017-10-05T18:25:02.130Z,3.75
2017-10-05T18:27:28.595Z,3.47
2017-10-05T18:29:55.873Z,3.35
2017-10-05T18:32:22.396Z,3.65
2017-10-05T18:34:49.250Z,4.00
2017-10-05T18:37:16.465Z,4.55
2017-10-05T18:39:42.938Z,3.08
2017-10-05T18:42:09.482Z,4.03
2017-10-05T18:44:35.963Z,3.85
2017-10-05T18:47:02.419Z,3.62
2017-10-05T18:49:28.883Z,3.35
2017-10-05T18:51:55.312Z,3.10
2017-10-05T18:54:22.517Z,3.95
2017-10-05T18:56:49.054Z,2.10
2017-10-05T18:59:15.534Z,1.73
2017-10-05T19:01:41.962Z,2.72
2017-10-05T19:04:08.417Z,2.72
2017-10-05T19:06:35.634Z,2.65
2017-10-05T19:09:02.190Z,2.20
2017-10-05T19:11:28.679Z,1.52
2017-10-05T19:13:55.252Z,1.55
2017-10-05T19:16:21.719Z,1.55
2017-10-05T19:18:48.173Z,2.03
2017-10-05T19:21:14.642Z,2.60
2017-10-05T19:23:41.566Z,1.25
2017-10-05T19:26:08.043Z,0.80
2017-10-05T19:28:35.270Z,1.30
2017-10-05T19:31:01.742Z,1.50
2017-10-05T19:33:28.234Z,1.30
2017-10-05T19:35:54.697Z,1.20
2017-10-05T19:38:21.891Z,1.17
2017-10-05T19:40:48.348Z,2.75
2017-10-05T19:43:14.807Z,0.62
2017-10-05T19:45:41.988Z,1.83
2017-10-05T19:48:08.505Z,0.50
2017-10-05T19:50:35.782Z,0.57
2017-10-05T19:53:02.302Z,0.60
2017-10-05T19:55:28.765Z,0.55
2017-10-05T19:57:55.279Z,1.00
2017-10-05T20:00:21.771Z,1.42
2017-10-05T20:02:48.961Z,0.75
2017-10-05T20:05:15.430Z,0.52
2017-10-05T20:07:41.925Z,1.00
2017-10-05T20:10:08.383Z,0.68
2017-10-05T20:12:34.885Z,1.40
2017-10-05T20:15:17.246Z,0.65
2017-10-05T20:17:49.782Z,0.65
2017-10-05T20:20:20.165Z,0.93
2017-10-05T20:22:49.189Z,1.67
2017-10-05T20:25:35.606Z,3.50
2017-10-05T20:28:07.970Z,0.98
2017-10-05T20:30:37.431Z,2.05
2017-10-05T20:33:13.822Z,1.75
2017-10-05T20:35:41.030Z,0.52
2017-10-05T20:38:07.493Z,0.75
2017-10-05T20:40:34.031Z,1.17
2017-10-05T20:43:01.237Z,0.85
2017-10-05T20:45:27.651Z,0.60
2017-10-05T20:47:54.127Z,1.98
2017-10-05T20:50:20.608Z,0.70
2017-10-05T20:52:47.079Z,0.85
2017-10-05T20:55:15.067Z,1.98
2017-10-05T20:57:42.286Z,1.85
2017-10-05T21:00:08.746Z,0.60
2017-10-05T21:02:36.100Z,1.00
2017-10-05T21:05:02.532Z,1.25
2017-10-05T21:07:28.950Z,0.60
2017-10-05T21:09:55.405Z,0.90
2017-10-05T21:12:21.869Z,1.17
2017-10-05T21:14:48.339Z,2.25
2017-10-05T21:17:14.813Z,1.40
2017-10-05T21:19:41.989Z,1.00
2017-10-05T21:22:08.469Z,778.20
2017-10-05T21:24:34.904Z,3.15
2017-10-05T21:27:01.341Z,1.17
2017-10-05T21:29:27.816Z,1.27
2017-10-05T21:31:54.248Z,1.35
2017-10-05T21:34:21.427Z,0.70
2017-10-05T21:36:47.930Z,1.58
2017-10-05T21:39:15.101Z,0.90
2017-10-05T21:41:41.506Z,0.60
2017-10-05T21:44:08.009Z,0.70
2017-10-05T21:46:34.439Z,2.12
2017-10-05T21:49:00.907Z,1.30
2017-10-05T21:51:28.090Z,0.90
2017-10-05T21:53:54.514Z,1.90
2017-10-05T21:56:20.959Z,1.00
2017-10-05T21:58:47.438Z,2.67
2017-10-05T22:01:13.935Z,1.15
2017-10-05T22:03:40.430Z,1.27
2017-10-05T22:06:06.891Z,1.05
2017-10-05T22:08:33.372Z,2.35
2017-10-05T22:10:59.858Z,1.52
2017-10-05T22:13:26.350Z,1.33
2017-10-05T22:15:53.561Z,3.22
2017-10-05T22:18:20.057Z,1.77
2017-10-05T22:20:46.623Z,1.60
2017-10-05T22:23:13.100Z,2.10
2017-10-05T22:25:39.557Z,1.48
2017-10-05T22:28:06.073Z,4.85
2017-10-05T22:30:32.562Z,1.65
2017-10-05T22:32:59.025Z,1.00
2017-10-05T22:35:26.274Z,1.10
2017-10-05T22:37:52.772Z,1.23
2017-10-05T22:40:19.261Z,4.18
2017-10-05T22:42:46.474Z,2.45
2017-10-05T22:45:12.959Z,1.10
2017-10-05T22:47:39.452Z,3.37
2017-10-05T22:50:05.903Z,1.40
2017-10-05T22:52:32.380Z,2.55
2017-10-05T22:54:58.847Z,1.20
2017-10-05T22:57:25.292Z,2.62
2017-10-05T22:59:51.775Z,2.00
2017-10-05T23:02:18.232Z,2.75
2017-10-05T23:04:45.103Z,743.10
2017-10-05T23:07:11.552Z,2.55
2017-10-05T23:09:38.795Z,2.20
2017-10-05T23:12:05.291Z,2.40
2017-10-05T23:14:31.789Z,4.20
2017-10-05T23:16:58.276Z,801.88
2017-10-05T23:19:25.153Z,684.95
2017-10-05T23:21:52.005Z,706.45
2017-10-05T23:24:18.839Z,757.47
2017-10-05T23:26:45.351Z,778.65
2017-10-05T23:29:12.570Z,917.95
2017-10-05T23:31:39.079Z,653.92
2017-10-05T23:34:05.969Z,691.40
2017-10-05T23:36:32.820Z,684.00
2017-10-05T23:38:59.690Z,748.75
2017-10-05T23:41:27.291Z,762.05
2017-10-05T23:43:54.899Z,698.70
2017-10-05T23:46:21.794Z,664.30
2017-10-05T23:48:49.746Z,609.90
2017-10-05T23:51:16.930Z,551.08
2017-10-05T23:53:44.155Z,510.13
2017-10-05T23:56:11.344Z,506.48
2017-10-05T23:58:38.610Z,512.75
